createdAt,value
2023-03-16T00:00:41.876Z,86.85
2023-03-16T00:03:09.444Z,87.07
2023-03-16T00:05:36.263Z,87.48
2023-03-16T00:08:03.357Z,87.35
2023-03-16T00:10:30.410Z,87.07
2023-03-16T00:12:57.741Z,86.83
2023-03-16T00:15:24.720Z,88.19
2023-03-16T00:17:51.529Z,88.34
2023-03-16T00:20:18.992Z,88.01
2023-03-16T00:22:46.029Z,87.80
2023-03-16T00:25:14.652Z,87.90
2023-03-16T00:27:41.575Z,88.80
2023-03-16T00:30:09.476Z,88.42
2023-03-16T00:32:37.673Z,87.90
2023-03-16T00:35:09.145Z,88.79
2023-03-16T00:37:36.424Z,88.47
2023-03-16T00:40:03.407Z,89.00
2023-03-16T00:42:31.053Z,89.00
2023-03-16T00:44:58.839Z,88.75
2023-03-16T00:47:27.599Z,88.41
2023-03-16T00:49:54.639Z,88.05
2023-03-16T00:52:22.400Z,88.41
2023-03-16T00:54:49.775Z,88.16
2023-03-16T00:57:18.131Z,88.04
2023-03-16T00:59:46.344Z,87.41
2023-03-16T01:02:14.487Z,87.96
2023-03-16T01:04:42.435Z,87.15
2023-03-16T01:07:11.545Z,87.71
2023-03-16T01:09:39.888Z,87.97
2023-03-16T01:12:12.934Z,87.87
2023-03-16T01:14:40.209Z,87.99
2023-03-16T01:17:08.628Z,87.58
2023-03-16T01:19:37.434Z,87.91
2023-03-16T01:22:06.398Z,87.55
2023-03-16T01:24:34.021Z,87.26
2023-03-16T01:27:01.441Z,88.05
2023-03-16T01:29:28.280Z,87.89
2023-03-16T01:31:55.101Z,87.42
2023-03-16T01:34:23.190Z,87.12
2023-03-16T01:36:51.016Z,87.14
2023-03-16T01:39:17.947Z,86.78
2023-03-16T01:41:45.916Z,86.45
2023-03-16T01:44:19.325Z,86.04
2023-03-16T01:46:46.203Z,86.46
2023-03-16T01:49:24.062Z,86.35
2023-03-16T01:52:11.124Z,86.26
2023-03-16T01:54:51.723Z,86.98
2023-03-16T01:57:19.931Z,90.80
2023-03-16T02:00:09.888Z,91.23
2023-03-16T02:02:41.149Z,91.77
2023-03-16T02:05:20.949Z,91.23
2023-03-16T02:07:49.747Z,91.29
2023-03-16T02:10:20.093Z,90.51
2023-03-16T02:12:47.501Z,89.74
2023-03-16T02:15:14.886Z,89.42
2023-03-16T02:17:43.908Z,89.32
2023-03-16T02:20:47.639Z,88.82
2023-03-16T02:23:18.387Z,88.60
2023-03-16T02:25:59.637Z,89.34
2023-03-16T02:28:52.361Z,88.66
2023-03-16T02:31:20.322Z,88.57
2023-03-16T02:33:49.550Z,87.65
2023-03-16T02:36:18.905Z,87.58
2023-03-16T02:38:45.853Z,87.94
2023-03-16T02:41:18.505Z,87.62
2023-03-16T02:43:55.812Z,88.14
2023-03-16T02:46:26.891Z,88.83
2023-03-16T02:49:16.020Z,88.76
2023-03-16T02:51:45.501Z,88.10
2023-03-16T02:54:12.465Z,86.95
2023-03-16T02:56:39.934Z,87.59
2023-03-16T02:59:06.972Z,89.82
2023-03-16T03:01:33.966Z,90.49
2023-03-16T03:04:01.829Z,91.24
2023-03-16T03:06:28.950Z,90.86
2023-03-16T03:08:56.360Z,92.65
2023-03-16T03:11:23.189Z,92.97
2023-03-16T03:13:50.562Z,92.59
2023-03-16T03:16:17.428Z,93.55
2023-03-16T03:18:44.507Z,94.78
2023-03-16T03:21:11.288Z,94.28
2023-03-16T03:23:38.194Z,95.14
2023-03-16T03:26:05.582Z,96.00
2023-03-16T03:28:32.472Z,96.37
2023-03-16T03:30:59.252Z,97.12
2023-03-16T03:33:26.101Z,97.62
2023-03-16T03:36:02.079Z,98.55
2023-03-16T03:38:28.942Z,98.43
2023-03-16T03:40:55.785Z,98.80
2023-03-16T03:43:22.664Z,99.62
2023-03-16T03:45:49.637Z,99.91
2023-03-16T03:48:16.537Z,100.00
2023-03-16T03:50:43.379Z,100.00
2023-03-16T03:53:10.372Z,100.00
2023-03-16T03:55:37.266Z,100.00
2023-03-16T03:58:04.129Z,100.00
2023-03-16T04:00:31.060Z,100.00
2023-03-16T04:02:57.970Z,100.00
2023-03-16T04:05:25.756Z,100.00
2023-03-16T04:07:52.631Z,100.00
2023-03-16T04:10:19.555Z,100.00
2023-03-16T04:12:46.425Z,100.00
2023-03-16T04:15:13.260Z,100.00
2023-03-16T04:17:40.067Z,100.00
2023-03-16T04:20:07.572Z,100.00
2023-03-16T04:22:34.435Z,100.00
2023-03-16T04:25:01.260Z,100.00
2023-03-16T04:27:28.161Z,100.00
2023-03-16T04:29:55.076Z,99.74
2023-03-16T04:32:21.984Z,99.20
2023-03-16T04:34:48.804Z,99.02
2023-03-16T04:37:15.648Z,97.96
2023-03-16T04:39:42.582Z,96.69
2023-03-16T04:42:09.497Z,95.13
2023-03-16T04:44:36.476Z,94.04
2023-03-16T04:47:03.216Z,94.16
2023-03-16T04:49:30.064Z,95.55
2023-03-16T04:51:57.074Z,98.16
2023-03-16T04:54:23.956Z,98.86
2023-03-16T04:56:50.722Z,98.95
2023-03-16T04:59:17.526Z,99.62
2023-03-16T05:01:44.410Z,99.77
2023-03-16T05:04:15.028Z,99.22
2023-03-16T05:06:46.028Z,99.05
2023-03-16T05:09:12.839Z,98.80
2023-03-16T05:11:40.060Z,98.35
2023-03-16T05:14:06.982Z,99.33
2023-03-16T05:16:33.808Z,99.70
2023-03-16T05:19:01.741Z,99.41
2023-03-16T05:21:28.597Z,98.71
2023-03-16T05:23:55.486Z,98.75
2023-03-16T05:26:22.355Z,98.42
2023-03-16T05:28:49.241Z,98.12
2023-03-16T05:31:16.275Z,98.77
2023-03-16T05:33:43.538Z,99.67
2023-03-16T05:36:11.417Z,99.39
2023-03-16T05:38:38.340Z,99.65
2023-03-16T05:41:06.216Z,99.28
2023-03-16T05:43:33.335Z,99.61
2023-03-16T05:46:00.175Z,99.81
2023-03-16T05:48:27.023Z,99.53
2023-03-16T05:50:54.471Z,99.20
2023-03-16T05:53:21.807Z,98.06
2023-03-16T05:55:52.890Z,98.81
2023-03-16T05:58:19.838Z,98.16
2023-03-16T06:00:49.643Z,97.85
2023-03-16T06:03:16.972Z,98.15
2023-03-16T06:05:44.022Z,97.04
2023-03-16T06:08:10.823Z,97.24
2023-03-16T06:10:37.720Z,96.13
2023-03-16T06:13:04.725Z,96.81
2023-03-16T06:15:34.616Z,96.97
2023-03-16T06:18:04.588Z,96.67
2023-03-16T06:20:31.432Z,96.33
2023-03-16T06:22:58.244Z,96.05
2023-03-16T06:25:25.080Z,95.54
2023-03-16T06:27:51.987Z,95.20
2023-03-16T06:30:18.886Z,94.95
2023-03-16T06:32:45.866Z,95.34
2023-03-16T06:35:13.547Z,95.34
2023-03-16T06:37:40.400Z,95.42
2023-03-16T06:40:08.002Z,95.21
2023-03-16T06:42:34.826Z,94.48
2023-03-16T06:45:01.716Z,95.10
2023-03-16T06:47:28.694Z,94.18
2023-03-16T06:49:55.509Z,93.57
2023-03-16T06:52:23.110Z,93.06
2023-03-16T06:54:50.218Z,93.26
2023-03-16T06:57:17.064Z,91.20
2023-03-16T06:59:43.910Z,89.35
2023-03-16T07:02:13.075Z,89.76
2023-03-16T07:04:40.423Z,87.38
2023-03-16T07:07:07.269Z,85.28
2023-03-16T07:09:36.741Z,85.07
2023-03-16T07:12:05.700Z,85.47
2023-03-16T07:14:32.524Z,82.15
2023-03-16T07:16:59.640Z,81.51
2023-03-16T07:19:26.492Z,81.92
2023-03-16T07:21:53.582Z,80.01
2023-03-16T07:24:21.230Z,80.93
2023-03-16T07:26:47.967Z,80.27
2023-03-16T07:29:14.808Z,81.11
2023-03-16T07:31:41.712Z,81.80
2023-03-16T07:34:08.720Z,83.84
2023-03-16T07:36:35.555Z,82.72
2023-03-16T07:39:02.464Z,81.96
2023-03-16T07:41:31.629Z,82.35
2023-03-16T07:43:59.340Z,83.54
2023-03-16T07:46:26.542Z,82.89
2023-03-16T07:48:53.403Z,83.40
2023-03-16T07:51:20.219Z,82.84
2023-03-16T07:53:47.369Z,82.31
2023-03-16T07:56:14.241Z,82.76
2023-03-16T07:58:41.531Z,82.42
2023-03-16T08:01:08.561Z,81.18
2023-03-16T08:03:35.530Z,81.12
2023-03-16T08:06:02.562Z,79.89
2023-03-16T08:08:29.406Z,79.76
2023-03-16T08:10:56.744Z,78.93
2023-03-16T08:13:24.016Z,80.09
2023-03-16T08:15:52.274Z,79.80
2023-03-16T08:18:19.156Z,77.40
2023-03-16T08:20:46.035Z,78.25
2023-03-16T08:23:12.926Z,77.98
2023-03-16T08:25:39.751Z,79.08
2023-03-16T08:28:06.860Z,79.32
2023-03-16T08:30:33.820Z,79.05
2023-03-16T08:33:00.924Z,78.46
2023-03-16T08:35:27.845Z,79.60
2023-03-16T08:37:56.023Z,77.99
2023-03-16T08:40:23.140Z,78.65
2023-03-16T08:42:50.014Z,77.04
2023-03-16T08:45:17.283Z,78.11
2023-03-16T08:47:44.266Z,76.03
2023-03-16T08:50:12.858Z,77.70
2023-03-16T08:52:39.785Z,77.94
2023-03-16T08:55:07.950Z,76.77
2023-03-16T08:57:34.766Z,78.25
2023-03-16T09:00:02.133Z,78.85
2023-03-16T09:02:29.271Z,78.46
2023-03-16T09:04:56.074Z,77.24
2023-03-16T09:07:23.187Z,75.76
2023-03-16T09:09:50.206Z,75.88
2023-03-16T09:12:17.016Z,76.05
2023-03-16T09:14:43.889Z,76.50
2023-03-16T09:17:10.928Z,74.88
2023-03-16T09:19:55.711Z,75.71
2023-03-16T09:22:24.539Z,74.82
2023-03-16T09:24:51.494Z,75.31
2023-03-16T09:27:19.253Z,74.86
2023-03-16T09:29:46.798Z,76.13
2023-03-16T09:32:13.646Z,76.73
2023-03-16T09:34:40.707Z,78.96
2023-03-16T09:37:07.716Z,77.76
2023-03-16T09:39:34.573Z,77.06
2023-03-16T09:42:34.018Z,77.80
2023-03-16T09:45:12.920Z,76.95
2023-03-16T09:47:41.932Z,78.60
2023-03-16T09:50:16.713Z,77.48
2023-03-16T09:52:55.330Z,75.21
2023-03-16T09:55:25.204Z,74.45
2023-03-16T09:57:53.964Z,75.12
2023-03-16T10:00:22.849Z,74.50
2023-03-16T10:03:17.999Z,75.80
2023-03-16T10:05:47.935Z,75.70
2023-03-16T10:08:24.358Z,70.99
2023-03-16T10:11:28.589Z,71.84
2023-03-16T10:13:59.715Z,73.07
2023-03-16T10:16:46.975Z,72.33
2023-03-16T10:19:45.821Z,72.51
2023-03-16T10:22:22.545Z,73.53
2023-03-16T10:25:11.107Z,71.93
2023-03-16T10:27:40.611Z,73.39
2023-03-16T10:30:14.270Z,72.69
2023-03-16T10:32:41.071Z,71.19
2023-03-16T10:35:26.210Z,67.54
2023-03-16T10:37:53.144Z,68.04
2023-03-16T10:40:19.982Z,66.94
2023-03-16T10:42:47.700Z,66.43
2023-03-16T10:45:32.188Z,66.98
2023-03-16T10:48:18.194Z,65.31
2023-03-16T10:50:50.439Z,67.09
2023-03-16T10:53:23.237Z,66.95
2023-03-16T10:55:50.370Z,66.82
2023-03-16T10:58:25.756Z,66.69
2023-03-16T11:00:52.607Z,66.59
2023-03-16T11:03:30.287Z,66.75
2023-03-16T11:05:59.460Z,69.11
2023-03-16T11:08:28.139Z,70.01
2023-03-16T11:11:01.032Z,69.15
2023-03-16T11:13:36.590Z,70.14
2023-03-16T11:16:06.334Z,69.84
2023-03-16T11:18:41.625Z,69.61
2023-03-16T11:21:12.524Z,69.56
2023-03-16T11:23:43.236Z,69.81
2023-03-16T11:26:21.404Z,69.85
2023-03-16T11:28:56.991Z,69.18
2023-03-16T11:31:43.984Z,70.79
2023-03-16T11:34:16.550Z,69.92
2023-03-16T11:36:50.400Z,72.24
2023-03-16T11:39:44.947Z,70.80
2023-03-16T11:42:42.208Z,69.08
2023-03-16T11:45:20.673Z,69.24
2023-03-16T11:48:13.774Z,69.96
2023-03-16T11:51:05.207Z,68.20
2023-03-16T11:53:47.191Z,68.95
2023-03-16T11:56:34.371Z,69.28
2023-03-16T11:59:26.274Z,68.64
2023-03-16T12:02:05.229Z,68.93
2023-03-16T12:04:41.059Z,67.18
2023-03-16T12:07:19.774Z,67.99
2023-03-16T12:10:17.684Z,67.25
2023-03-16T12:13:02.617Z,68.04
2023-03-16T12:15:33.068Z,67.79
2023-03-16T12:18:14.163Z,66.16
2023-03-16T12:20:51.226Z,67.23
2023-03-16T12:23:29.334Z,66.12
2023-03-16T12:25:58.722Z,67.00
2023-03-16T12:28:28.493Z,65.20
2023-03-16T12:31:20.169Z,66.00
2023-03-16T12:33:56.979Z,69.92
2023-03-16T12:36:55.163Z,72.00
2023-03-16T12:39:48.884Z,71.75
2023-03-16T12:42:41.971Z,69.95
2023-03-16T12:45:16.142Z,67.71
2023-03-16T12:47:49.308Z,67.63
2023-03-16T12:50:18.040Z,70.11
2023-03-16T12:52:47.879Z,67.10
2023-03-16T12:55:17.418Z,67.26
2023-03-16T12:57:46.069Z,66.05
2023-03-16T13:00:14.779Z,67.08
2023-03-16T13:02:55.984Z,67.14
2023-03-16T13:05:35.182Z,67.74
2023-03-16T13:08:10.409Z,67.02
2023-03-16T13:10:38.558Z,68.78
2023-03-16T13:13:16.497Z,70.48
2023-03-16T13:15:44.807Z,71.67
2023-03-16T13:18:14.712Z,73.02
2023-03-16T13:21:01.217Z,72.20
2023-03-16T13:23:56.638Z,72.75
2023-03-16T13:26:45.622Z,73.15
2023-03-16T13:29:28.627Z,74.73
2023-03-16T13:32:02.187Z,72.67
2023-03-16T13:34:46.884Z,75.31
2023-03-16T13:37:15.459Z,72.41
2023-03-16T13:39:42.607Z,72.05
2023-03-16T13:42:19.381Z,71.84
2023-03-16T13:44:46.608Z,68.62
2023-03-16T13:47:20.069Z,70.28
2023-03-16T13:49:51.617Z,71.88
2023-03-16T13:52:31.834Z,68.93
2023-03-16T13:55:00.425Z,67.78
2023-03-16T13:57:30.569Z,68.34
2023-03-16T14:00:25.502Z,67.78
2023-03-16T14:03:00.233Z,67.68
2023-03-16T14:05:30.051Z,68.53
2023-03-16T14:07:57.432Z,67.91
2023-03-16T14:10:29.721Z,68.04
2023-03-16T14:12:58.684Z,67.13
2023-03-16T14:15:28.244Z,66.82
2023-03-16T14:18:13.894Z,66.80
2023-03-16T14:20:41.811Z,67.81
2023-03-16T14:23:25.935Z,68.28
2023-03-16T14:25:53.282Z,68.69
2023-03-16T14:28:27.090Z,68.84
2023-03-16T14:31:01.702Z,68.95
2023-03-16T14:33:31.232Z,69.00
2023-03-16T14:36:06.958Z,68.29
2023-03-16T14:38:36.340Z,69.08
2023-03-16T14:41:13.535Z,68.65
2023-03-16T14:43:47.344Z,70.51
2023-03-16T14:46:17.801Z,70.58
2023-03-16T14:48:44.874Z,69.70
2023-03-16T14:51:15.208Z,71.48
2023-03-16T14:53:42.177Z,71.01
2023-03-16T14:56:12.954Z,70.90
2023-03-16T14:58:40.722Z,69.25
2023-03-16T15:01:14.410Z,70.32
2023-03-16T15:03:41.721Z,69.20
2023-03-16T15:06:08.518Z,68.30
2023-03-16T15:08:36.687Z,70.45
2023-03-16T15:11:06.710Z,71.52
2023-03-16T15:13:33.975Z,70.68
2023-03-16T15:16:02.134Z,70.96
2023-03-16T15:18:29.168Z,70.87
2023-03-16T15:20:56.096Z,71.51
2023-03-16T15:23:22.954Z,71.35
2023-03-16T15:25:50.177Z,70.93
2023-03-16T15:28:18.327Z,72.34
2023-03-16T15:30:51.271Z,71.48
2023-03-16T15:33:18.524Z,72.25
2023-03-16T15:35:48.169Z,72.15
2023-03-16T15:38:24.182Z,72.65
2023-03-16T15:40:52.056Z,72.98
2023-03-16T15:43:27.431Z,73.34
2023-03-16T15:45:56.444Z,72.86
2023-03-16T15:48:23.472Z,72.54
2023-03-16T15:51:16.450Z,72.35
2023-03-16T15:53:50.177Z,72.28
2023-03-16T15:56:24.196Z,72.52
2023-03-16T16:10:16.944Z,72.24
2023-03-16T16:12:45.090Z,71.83
2023-03-16T16:15:22.396Z,71.40
2023-03-16T16:18:09.955Z,71.44
2023-03-16T16:20:37.284Z,71.78
2023-03-16T16:23:04.412Z,71.57
2023-03-16T16:25:37.521Z,71.39
2023-03-16T16:28:21.039Z,72.55
2023-03-16T16:30:48.772Z,73.55
2023-03-16T16:33:22.805Z,73.96
2023-03-16T16:35:49.667Z,75.12
2023-03-16T16:38:16.519Z,74.42
2023-03-16T16:40:43.758Z,74.66
2023-03-16T16:43:37.662Z,75.02
2023-03-16T16:46:16.237Z,75.60
2023-03-16T16:48:46.527Z,76.27
2023-03-16T16:51:24.708Z,76.08
2023-03-16T16:53:54.110Z,76.97
2023-03-16T16:56:26.377Z,76.47
2023-03-16T16:58:54.199Z,76.14
2023-03-16T17:01:30.176Z,75.73
2023-03-16T17:03:57.523Z,76.34
2023-03-16T17:06:24.611Z,76.40
2023-03-16T17:08:51.657Z,76.29
2023-03-16T17:11:28.208Z,75.71
2023-03-16T17:13:57.765Z,75.67
2023-03-16T17:16:25.273Z,75.91
2023-03-16T17:18:52.172Z,75.61
2023-03-16T17:21:21.923Z,75.57
2023-03-16T17:23:49.885Z,74.92
2023-03-16T17:26:23.831Z,74.97
2023-03-16T17:28:57.738Z,74.90
2023-03-16T17:31:28.026Z,75.46
2023-03-16T17:33:56.283Z,75.22
2023-03-16T17:36:23.110Z,76.27
2023-03-16T17:38:50.264Z,76.11
2023-03-16T17:41:30.128Z,76.12
2023-03-16T17:44:03.028Z,76.09
2023-03-16T17:46:31.827Z,76.32
2023-03-16T17:48:58.777Z,75.67
2023-03-16T17:51:25.727Z,76.52
2023-03-16T17:53:52.644Z,76.01
2023-03-16T17:56:27.085Z,75.79
2023-03-16T17:58:56.490Z,75.75
2023-03-16T18:01:34.168Z,75.15
2023-03-16T18:04:02.972Z,75.54
2023-03-16T18:06:31.053Z,75.29
2023-03-16T18:08:58.393Z,75.22
2023-03-16T18:11:37.526Z,74.96
2023-03-16T18:14:08.747Z,75.02
2023-03-16T18:16:36.753Z,74.73
2023-03-16T18:19:17.223Z,74.65
2023-03-16T18:21:44.716Z,74.03
2023-03-16T18:24:15.301Z,73.93
2023-03-16T18:26:43.727Z,74.29
2023-03-16T18:29:12.756Z,73.88
2023-03-16T18:31:43.384Z,74.47
2023-03-16T18:34:28.276Z,74.40
2023-03-16T18:36:56.528Z,74.53
2023-03-16T18:39:24.090Z,74.44
2023-03-16T18:41:52.299Z,74.09
2023-03-16T18:44:22.489Z,74.46
2023-03-16T18:46:53.327Z,74.27
2023-03-16T18:49:28.453Z,73.16
2023-03-16T18:51:56.432Z,73.38
2023-03-16T18:54:31.929Z,76.34
2023-03-16T18:56:59.666Z,79.22
2023-03-16T18:59:27.518Z,79.56
2023-03-16T19:01:57.912Z,79.87
2023-03-16T19:04:30.584Z,80.33
2023-03-16T19:06:57.818Z,79.03
2023-03-16T19:09:29.476Z,78.34
2023-03-16T19:11:59.581Z,78.33
2023-03-16T19:14:33.522Z,77.89
2023-03-16T19:17:00.843Z,77.57
2023-03-16T19:19:27.751Z,77.44
2023-03-16T19:22:07.412Z,76.90
2023-03-16T19:24:55.148Z,76.54
2023-03-16T19:27:35.426Z,76.50
2023-03-16T19:30:02.883Z,76.59
2023-03-16T19:32:29.825Z,76.94
2023-03-16T19:34:57.182Z,76.73
2023-03-16T19:37:24.199Z,76.25
2023-03-16T19:39:54.213Z,76.02
2023-03-16T19:42:28.713Z,76.05
2023-03-16T19:44:56.388Z,76.06
2023-03-16T19:47:30.965Z,75.68
2023-03-16T19:49:58.383Z,76.29
2023-03-16T19:52:26.460Z,78.78
2023-03-16T19:54:53.362Z,79.73
2023-03-16T19:57:20.909Z,78.54
2023-03-16T19:59:53.303Z,78.58
2023-03-16T20:02:43.930Z,78.27
2023-03-16T20:05:17.877Z,78.48
2023-03-16T20:07:44.734Z,77.98
2023-03-16T20:10:20.060Z,78.70
2023-03-16T20:12:49.673Z,79.51
2023-03-16T20:15:18.638Z,81.38
2023-03-16T20:17:46.420Z,81.57
2023-03-16T20:20:29.899Z,79.91
2023-03-16T20:22:57.210Z,78.94
2023-03-16T20:25:25.761Z,79.10
2023-03-16T20:27:57.456Z,78.68
2023-03-16T20:30:24.476Z,78.12
2023-03-16T20:32:56.221Z,78.16
2023-03-16T20:35:26.857Z,77.66
2023-03-16T20:37:55.259Z,77.62
2023-03-16T20:40:23.434Z,77.11
2023-03-16T20:42:51.775Z,77.42
2023-03-16T20:45:24.681Z,77.24
2023-03-16T20:47:54.787Z,77.30
2023-03-16T20:50:30.913Z,77.43
2023-03-16T20:52:58.898Z,76.78
2023-03-16T20:55:27.614Z,76.35
2023-03-16T20:57:55.412Z,76.89
2023-03-16T21:00:27.259Z,77.24
2023-03-16T21:02:55.023Z,77.13
2023-03-16T21:05:23.463Z,76.90
2023-03-16T21:07:52.072Z,77.11
2023-03-16T21:10:23.660Z,76.82
2023-03-16T21:12:56.217Z,76.37
2023-03-16T21:15:32.381Z,76.69
2023-03-16T21:18:00.897Z,76.42
2023-03-16T21:20:30.952Z,76.67
2023-03-16T21:22:59.376Z,76.62
2023-03-16T21:25:30.369Z,76.34
2023-03-16T21:28:03.610Z,76.98
2023-03-16T21:30:40.184Z,79.36
2023-03-16T21:33:30.705Z,78.83
2023-03-16T21:35:59.084Z,78.02
2023-03-16T21:38:28.408Z,78.45
2023-03-16T21:40:56.519Z,78.69
2023-03-16T21:43:23.977Z,79.19
2023-03-16T21:45:51.231Z,79.24
2023-03-16T21:48:23.890Z,79.21
2023-03-16T21:50:52.879Z,79.02
2023-03-16T21:53:26.381Z,78.38
2023-03-16T21:55:53.937Z,77.98
2023-03-16T21:58:21.396Z,78.31
2023-03-16T22:00:49.746Z,79.57
2023-03-16T22:03:47.989Z,81.24
2023-03-16T22:06:16.600Z,82.48
2023-03-16T22:08:43.610Z,82.83
2023-03-16T22:11:17.205Z,82.05
2023-03-16T22:13:44.079Z,81.28
2023-03-16T22:16:20.842Z,84.03
2023-03-16T22:18:50.385Z,87.71
2023-03-16T22:21:34.603Z,88.10
2023-03-16T22:24:02.838Z,87.01
2023-03-16T22:26:30.141Z,85.27
2023-03-16T22:28:59.292Z,83.82
2023-03-16T22:31:35.914Z,82.53
2023-03-16T22:34:04.318Z,82.52
2023-03-16T22:36:33.071Z,82.14
2023-03-16T22:39:07.410Z,82.08
2023-03-16T22:41:34.405Z,82.10
2023-03-16T22:44:01.674Z,82.10
2023-03-16T22:46:29.559Z,82.09
2023-03-16T22:48:57.609Z,81.30
2023-03-16T22:51:29.612Z,81.23
2023-03-16T22:54:06.364Z,81.78
2023-03-16T22:56:34.918Z,82.54
2023-03-16T22:59:05.899Z,83.14
2023-03-16T23:01:40.623Z,84.91
2023-03-16T23:04:18.835Z,86.31
2023-03-16T23:06:47.376Z,87.13
2023-03-16T23:09:16.656Z,88.88
2023-03-16T23:11:45.382Z,89.41
2023-03-16T23:14:34.924Z,88.67
2023-03-16T23:17:01.764Z,87.87
2023-03-16T23:19:32.590Z,87.99
2023-03-16T23:22:02.367Z,89.97
2023-03-16T23:24:29.466Z,89.75
2023-03-16T23:26:56.412Z,89.54
2023-03-16T23:29:24.446Z,89.20
2023-03-16T23:31:51.343Z,89.27
2023-03-16T23:34:20.689Z,88.06
2023-03-16T23:36:48.067Z,87.78
2023-03-16T23:39:15.102Z,87.98
2023-03-16T23:41:45.841Z,89.00
2023-03-16T23:44:19.559Z,88.72
2023-03-16T23:46:46.457Z,88.17
2023-03-16T23:49:23.548Z,87.40
2023-03-16T23:51:50.816Z,87.90
2023-03-16T23:54:24.531Z,87.00
2023-03-16T23:56:51.540Z,87.09
2023-03-16T23:59:18.828Z,86.03
